createdAt,value
2018-12-30T00:00:30.995Z,23.47
2018-12-30T00:02:59.488Z,19.77
2018-12-30T00:05:27.832Z,17.67
2018-12-30T00:07:56.345Z,21.03
2018-12-30T00:10:25.338Z,24.53
2018-12-30T00:12:54.204Z,27.10
2018-12-30T00:15:22.920Z,25.27
2018-12-30T00:17:51.302Z,23.20
2018-12-30T00:20:21.371Z,18.20
2018-12-30T00:22:52.726Z,20.57
2018-12-30T00:25:21.382Z,15.97
2018-12-30T00:27:49.999Z,23.73
2018-12-30T00:30:18.589Z,20.33
2018-12-30T00:32:47.616Z,15.93
2018-12-30T00:35:16.189Z,18.63
2018-12-30T00:37:44.362Z,22.60
2018-12-30T00:40:13.324Z,21.90
2018-12-30T00:42:42.090Z,21.43
2018-12-30T00:45:10.897Z,16.60
2018-12-30T00:47:39.110Z,18.47
2018-12-30T00:50:08.460Z,22.03
2018-12-30T00:52:36.761Z,17.60
2018-12-30T00:55:05.386Z,25.17
2018-12-30T00:57:34.208Z,20.20
2018-12-30T01:00:02.951Z,26.53
2018-12-30T01:02:32.142Z,21.53
2018-12-30T01:05:00.739Z,27.33
2018-12-30T01:07:28.773Z,33.10
2018-12-30T01:09:57.456Z,25.40
2018-12-30T01:12:25.792Z,24.00
2018-12-30T01:14:54.495Z,17.37
2018-12-30T01:17:22.741Z,20.80
2018-12-30T01:19:51.123Z,22.30
2018-12-30T01:22:23.680Z,15.13
2018-12-30T01:24:52.842Z,21.90
2018-12-30T01:27:21.011Z,17.30
2018-12-30T01:29:49.855Z,14.63
2018-12-30T01:32:22.630Z,21.47
2018-12-30T01:34:51.660Z,13.63
2018-12-30T01:37:19.856Z,19.10
2018-12-30T01:39:48.972Z,18.67
2018-12-30T01:42:17.968Z,22.77
2018-12-30T01:44:47.262Z,14.00
2018-12-30T01:47:16.343Z,15.03
2018-12-30T01:49:45.166Z,18.10
2018-12-30T01:52:13.781Z,17.10
2018-12-30T01:54:42.431Z,16.20
2018-12-30T01:57:10.604Z,18.13
2018-12-30T01:59:39.039Z,14.30
2018-12-30T02:02:08.517Z,16.07
2018-12-30T02:04:37.009Z,18.83
2018-12-30T02:07:05.082Z,17.60
2018-12-30T02:09:34.101Z,20.17
2018-12-30T02:12:03.119Z,16.00
2018-12-30T02:14:32.704Z,14.60
2018-12-30T02:17:01.138Z,16.03
2018-12-30T02:19:30.632Z,15.80
2018-12-30T02:21:58.796Z,19.73
2018-12-30T02:24:27.091Z,13.03
2018-12-30T02:26:55.251Z,16.97
2018-12-30T02:29:23.420Z,18.70
2018-12-30T02:31:54.457Z,14.67
2018-12-30T02:34:22.699Z,20.67
2018-12-30T02:36:51.221Z,12.43
2018-12-30T02:39:20.008Z,15.57
2018-12-30T02:41:48.170Z,26.27
2018-12-30T02:44:16.336Z,23.10
2018-12-30T02:46:45.673Z,17.40
2018-12-30T02:49:13.688Z,12.17
2018-12-30T02:51:50.068Z,17.90
2018-12-30T02:54:12.119Z,14.70
2018-12-30T02:56:40.803Z,13.90
2018-12-30T02:59:08.967Z,19.33
2018-12-30T03:01:37.270Z,9.37
2018-12-30T03:04:05.562Z,12.33
2018-12-30T03:06:34.421Z,14.03
2018-12-30T03:09:05.380Z,13.13
2018-12-30T03:11:34.521Z,15.83
2018-12-30T03:14:02.839Z,13.47
2018-12-30T03:16:33.975Z,13.57
2018-12-30T03:19:02.222Z,11.67
2018-12-30T03:21:31.652Z,12.40
2018-12-30T03:24:00.034Z,14.23
2018-12-30T03:26:28.176Z,11.87
2018-12-30T03:28:56.386Z,15.77
2018-12-30T03:31:24.445Z,12.00
2018-12-30T03:33:52.837Z,17.60
2018-12-30T03:36:22.102Z,18.30
2018-12-30T03:38:50.729Z,14.67
2018-12-30T03:41:19.807Z,15.83
2018-12-30T03:43:47.941Z,19.00
2018-12-30T03:46:16.170Z,20.33
2018-12-30T03:48:44.623Z,18.07
2018-12-30T03:51:12.971Z,15.10
2018-12-30T03:53:41.091Z,13.77
2018-12-30T03:56:10.474Z,14.37
2018-12-30T03:58:39.041Z,10.90
2018-12-30T04:01:07.525Z,15.13
2018-12-30T04:03:36.137Z,11.23
2018-12-30T04:06:04.702Z,11.80
2018-12-30T04:08:33.269Z,14.33
2018-12-30T04:11:01.481Z,18.73
2018-12-30T04:13:30.122Z,11.20
2018-12-30T04:15:58.349Z,18.23
2018-12-30T04:18:26.913Z,16.47
2018-12-30T04:20:55.063Z,19.20
2018-12-30T04:23:23.903Z,19.77
2018-12-30T04:25:51.851Z,18.40
2018-12-30T04:28:20.638Z,22.90
2018-12-30T04:30:49.113Z,15.87
2018-12-30T04:33:17.079Z,17.37
2018-12-30T04:35:45.365Z,12.23
2018-12-30T04:38:14.227Z,14.30
2018-12-30T04:40:42.420Z,19.13
2018-12-30T04:43:11.195Z,15.50
2018-12-30T04:45:39.591Z,16.43
2018-12-30T04:48:10.115Z,11.50
2018-12-30T04:50:39.924Z,16.37
2018-12-30T04:53:08.627Z,16.13
2018-12-30T04:55:36.701Z,15.43
2018-12-30T04:58:04.769Z,17.27
2018-12-30T05:00:33.271Z,15.40
2018-12-30T05:03:01.810Z,15.73
2018-12-30T05:05:30.833Z,18.00
2018-12-30T05:07:59.207Z,15.83
2018-12-30T05:10:27.467Z,14.10
2018-12-30T05:12:55.715Z,13.30
2018-12-30T05:15:24.223Z,18.30
2018-12-30T05:17:53.105Z,18.97
2018-12-30T05:20:21.398Z,13.87
2018-12-30T05:22:49.884Z,16.17
2018-12-30T05:25:18.463Z,19.77
2018-12-30T05:27:47.138Z,20.73
2018-12-30T05:30:15.527Z,16.80
2018-12-30T05:32:43.860Z,13.43
2018-12-30T05:35:11.969Z,14.00
2018-12-30T05:37:40.906Z,18.03
2018-12-30T05:40:09.041Z,12.60
2018-12-30T05:42:37.172Z,16.40
2018-12-30T05:45:06.445Z,16.33
2018-12-30T05:47:34.895Z,18.00
2018-12-30T05:50:03.391Z,16.33
2018-12-30T05:52:31.964Z,15.37
2018-12-30T05:55:00.544Z,16.70
2018-12-30T05:57:29.599Z,15.20
2018-12-30T05:59:58.322Z,22.63
2018-12-30T06:02:27.001Z,20.50
2018-12-30T06:04:55.587Z,24.60
2018-12-30T06:07:24.053Z,17.27
2018-12-30T06:09:52.576Z,17.60
2018-12-30T06:12:21.411Z,20.57
2018-12-30T06:14:49.565Z,15.87
2018-12-30T06:17:18.088Z,16.47
2018-12-30T06:19:46.550Z,17.33
2018-12-30T06:22:14.551Z,21.23
2018-12-30T06:24:42.745Z,18.53
2018-12-30T06:27:11.776Z,16.47
2018-12-30T06:29:40.264Z,23.53
2018-12-30T06:32:08.780Z,20.83
2018-12-30T06:34:37.341Z,16.53
2018-12-30T06:37:06.302Z,16.70
2018-12-30T06:39:34.463Z,28.20
2018-12-30T06:42:02.685Z,12.20
2018-12-30T06:44:30.767Z,28.87
2018-12-30T06:46:59.676Z,28.37
2018-12-30T06:49:28.084Z,20.97
2018-12-30T06:51:56.099Z,21.20
2018-12-30T06:54:24.316Z,20.40
2018-12-30T06:56:53.073Z,25.63
2018-12-30T06:59:21.658Z,20.27
2018-12-30T07:01:50.739Z,18.93
2018-12-30T07:04:19.779Z,15.10
2018-12-30T07:06:51.510Z,13.73
2018-12-30T07:09:19.786Z,21.73
2018-12-30T07:11:48.621Z,22.03
2018-12-30T07:14:16.649Z,25.70
2018-12-30T07:16:46.344Z,16.10
2018-12-30T07:19:14.989Z,20.13
2018-12-30T07:21:43.417Z,14.87
2018-12-30T07:24:12.968Z,31.40
2018-12-30T07:26:41.359Z,23.70
2018-12-30T07:29:09.788Z,19.80
2018-12-30T07:31:38.146Z,17.33
2018-12-30T07:34:06.537Z,21.20
2018-12-30T07:36:35.338Z,18.97
2018-12-30T07:39:05.172Z,19.27
2018-12-30T07:41:33.290Z,12.50
2018-12-30T07:44:01.549Z,16.13
2018-12-30T07:46:30.029Z,12.23
2018-12-30T07:48:58.172Z,19.17
2018-12-30T07:51:26.729Z,23.10
2018-12-30T07:53:58.791Z,23.27
2018-12-30T07:56:27.589Z,16.20
2018-12-30T07:58:56.306Z,19.00
2018-12-30T08:01:24.401Z,22.53
2018-12-30T08:03:52.304Z,18.10
2018-12-30T08:06:20.731Z,16.37
2018-12-30T08:08:49.246Z,19.43
2018-12-30T08:11:17.574Z,21.37
2018-12-30T08:13:45.690Z,14.23
2018-12-30T08:16:13.999Z,26.40
2018-12-30T08:18:43.899Z,22.67
2018-12-30T08:21:11.976Z,22.80
2018-12-30T08:23:40.226Z,21.73
2018-12-30T08:26:08.915Z,21.30
2018-12-30T08:28:37.268Z,27.03
2018-12-30T08:31:05.906Z,18.00
2018-12-30T08:33:34.312Z,21.83
2018-12-30T08:36:03.068Z,22.50
2018-12-30T08:38:31.611Z,27.00
2018-12-30T08:40:59.707Z,22.97
2018-12-30T08:43:30.957Z,16.97
2018-12-30T08:46:01.992Z,23.17
2018-12-30T08:48:30.589Z,29.33
2018-12-30T08:50:59.618Z,22.50
2018-12-30T08:53:29.483Z,29.50
2018-12-30T08:55:58.373Z,18.00
2018-12-30T08:58:27.147Z,27.20
2018-12-30T09:00:55.318Z,27.97
2018-12-30T09:03:23.408Z,22.40
2018-12-30T09:05:51.771Z,31.13
2018-12-30T09:08:19.939Z,28.50
2018-12-30T09:10:48.546Z,36.17
2018-12-30T09:13:16.988Z,34.87
2018-12-30T09:15:45.569Z,24.27
2018-12-30T09:18:13.832Z,37.03
2018-12-30T09:20:42.602Z,45.33
2018-12-30T09:23:10.916Z,37.13
2018-12-30T09:25:39.233Z,40.07
2018-12-30T09:28:07.317Z,25.43
2018-12-30T09:30:35.539Z,27.70
2018-12-30T09:33:04.683Z,32.83
2018-12-30T09:35:33.003Z,25.67
2018-12-30T09:38:01.012Z,29.47
2018-12-30T09:40:29.877Z,25.13
2018-12-30T09:42:58.305Z,31.33
2018-12-30T09:45:26.507Z,27.27
2018-12-30T09:47:54.612Z,25.17
2018-12-30T09:50:22.931Z,32.37
2018-12-30T09:52:52.217Z,27.57
2018-12-30T09:55:21.079Z,34.93
2018-12-30T09:57:49.325Z,33.23
2018-12-30T10:00:17.366Z,34.57
2018-12-30T10:02:46.322Z,30.73
2018-12-30T10:05:14.418Z,29.83
2018-12-30T10:07:42.624Z,31.50
2018-12-30T10:10:10.829Z,16.20
2018-12-30T10:12:39.766Z,24.27
2018-12-30T10:15:10.086Z,12.27
2018-12-30T10:17:40.888Z,20.77
2018-12-30T10:20:09.195Z,20.37
2018-12-30T10:22:40.380Z,24.93
2018-12-30T10:25:08.573Z,20.87
2018-12-30T10:27:36.577Z,22.80
2018-12-30T10:30:06.052Z,21.70
2018-12-30T10:32:34.427Z,24.37
2018-12-30T10:35:03.247Z,26.03
2018-12-30T10:37:31.463Z,19.93
2018-12-30T10:40:00.289Z,27.97
2018-12-30T10:42:28.797Z,25.07
2018-12-30T10:44:56.955Z,27.47
2018-12-30T10:47:25.594Z,22.17
2018-12-30T10:49:54.948Z,23.23
2018-12-30T10:52:23.754Z,24.47
2018-12-30T10:54:52.891Z,22.53
2018-12-30T10:57:21.321Z,20.87
2018-12-30T10:59:49.786Z,17.43
2018-12-30T11:02:17.598Z,19.67
2018-12-30T11:04:46.163Z,14.27
2018-12-30T11:07:14.208Z,18.97
2018-12-30T11:09:42.978Z,20.50
2018-12-30T11:12:11.301Z,20.77
2018-12-30T11:14:39.244Z,23.83
2018-12-30T11:17:07.383Z,18.20
2018-12-30T11:19:35.998Z,22.57
2018-12-30T11:22:04.195Z,22.80
2018-12-30T11:24:32.544Z,30.13
2018-12-30T11:27:00.995Z,28.53
2018-12-30T11:29:29.515Z,19.40
2018-12-30T11:31:57.495Z,20.10
2018-12-30T11:34:26.774Z,17.97
2018-12-30T11:36:58.719Z,18.50
2018-12-30T11:39:27.539Z,19.30
2018-12-30T11:41:55.841Z,20.20
2018-12-30T11:44:24.307Z,11.60
2018-12-30T11:46:52.491Z,13.60
2018-12-30T11:49:22.083Z,20.67
2018-12-30T11:51:50.413Z,10.07
2018-12-30T11:54:18.780Z,15.00
2018-12-30T11:56:47.221Z,15.47
2018-12-30T11:59:15.795Z,23.60
2018-12-30T12:01:44.241Z,22.50
2018-12-30T12:04:12.779Z,13.80
2018-12-30T12:06:41.003Z,20.90
2018-12-30T12:09:09.358Z,21.40
2018-12-30T12:11:38.560Z,19.33
2018-12-30T12:14:07.397Z,14.80
2018-12-30T12:16:36.293Z,8.43
2018-12-30T12:19:04.781Z,12.93
2018-12-30T12:21:32.913Z,17.67
2018-12-30T12:24:01.048Z,17.43
2018-12-30T12:26:29.299Z,8.93
2018-12-30T12:28:57.648Z,13.63
2018-12-30T12:31:26.588Z,16.20
2018-12-30T12:33:55.302Z,8.40
2018-12-30T12:36:23.656Z,18.73
2018-12-30T12:38:52.333Z,15.23
2018-12-30T12:41:20.902Z,14.63
2018-12-30T12:43:49.333Z,10.40
2018-12-30T12:46:17.420Z,18.90
2018-12-30T12:48:45.721Z,13.37
2018-12-30T12:51:14.192Z,15.73
2018-12-30T12:53:42.355Z,13.27
2018-12-30T12:56:10.706Z,11.10
2018-12-30T12:58:38.836Z,17.03
2018-12-30T13:01:07.156Z,15.23
2018-12-30T13:03:35.517Z,11.73
2018-12-30T13:06:03.664Z,11.07
2018-12-30T13:08:31.793Z,11.03
2018-12-30T13:11:03.330Z,12.73
2018-12-30T13:13:36.170Z,12.00
2018-12-30T13:16:04.840Z,12.73
2018-12-30T13:18:33.326Z,14.20
2018-12-30T13:21:02.179Z,17.20
2018-12-30T13:23:30.780Z,14.27
2018-12-30T13:26:08.888Z,10.60
2018-12-30T13:28:38.824Z,15.50
2018-12-30T13:31:07.228Z,13.97
2018-12-30T13:33:35.586Z,8.03
2018-12-30T13:36:11.217Z,10.70
2018-12-30T13:38:39.493Z,11.07
2018-12-30T13:41:08.579Z,10.93
2018-12-30T13:43:43.553Z,12.27
2018-12-30T13:46:11.759Z,14.27
2018-12-30T13:48:41.053Z,12.33
2018-12-30T13:51:09.939Z,13.00
2018-12-30T13:53:38.652Z,15.93
2018-12-30T13:56:07.167Z,13.73
2018-12-30T13:58:35.244Z,14.77
2018-12-30T14:01:03.803Z,16.20
2018-12-30T14:03:32.521Z,14.47
2018-12-30T14:06:00.822Z,15.13
2018-12-30T14:08:29.473Z,13.53
2018-12-30T14:10:58.546Z,18.23
2018-12-30T14:13:31.716Z,20.60
2018-12-30T14:16:00.847Z,21.20
2018-12-30T14:18:28.829Z,19.20
2018-12-30T14:20:57.095Z,17.67
2018-12-30T14:23:25.445Z,20.20
2018-12-30T14:25:54.359Z,18.00
2018-12-30T14:28:22.625Z,18.07
2018-12-30T14:30:50.963Z,16.63
2018-12-30T14:33:19.939Z,18.50
2018-12-30T14:35:48.719Z,16.73
2018-12-30T14:38:16.867Z,13.43
2018-12-30T14:40:45.345Z,17.53
2018-12-30T14:43:13.750Z,13.27
2018-12-30T14:45:41.746Z,16.63
2018-12-30T14:48:09.838Z,12.87
2018-12-30T14:50:38.576Z,23.63
2018-12-30T14:53:08.415Z,15.37
2018-12-30T14:55:36.741Z,15.80
2018-12-30T14:58:05.032Z,10.13
2018-12-30T15:00:33.507Z,17.40
2018-12-30T15:03:02.381Z,20.60
2018-12-30T15:05:30.568Z,10.47
2018-12-30T15:07:58.745Z,14.87
2018-12-30T15:10:27.189Z,13.17
2018-12-30T15:12:55.610Z,12.73
2018-12-30T15:15:24.335Z,9.13
2018-12-30T15:17:52.817Z,13.20
2018-12-30T15:20:21.451Z,16.17
2018-12-30T15:22:50.246Z,10.67
2018-12-30T15:25:18.295Z,19.90
2018-12-30T15:27:47.523Z,12.03
2018-12-30T15:30:17.470Z,10.50
2018-12-30T15:32:45.474Z,12.30
2018-12-30T15:35:13.711Z,13.53
2018-12-30T15:37:41.827Z,9.30
2018-12-30T15:40:10.324Z,12.60
2018-12-30T15:42:39.265Z,11.03
2018-12-30T15:45:07.774Z,12.37
2018-12-30T15:47:36.084Z,10.70
2018-12-30T15:50:06.350Z,15.20
2018-12-30T15:52:34.335Z,9.83
2018-12-30T15:55:03.563Z,12.20
2018-12-30T15:57:31.955Z,12.70
2018-12-30T16:00:03.469Z,12.17
2018-12-30T16:02:31.569Z,14.10
2018-12-30T16:05:03.592Z,14.93
2018-12-30T16:07:32.799Z,10.83
2018-12-30T16:10:07.403Z,9.73
2018-12-30T16:12:39.451Z,12.60
2018-12-30T16:15:09.385Z,16.43
2018-12-30T16:17:37.617Z,13.83
2018-12-30T16:20:07.221Z,16.37
2018-12-30T16:22:35.615Z,15.17
2018-12-30T16:25:04.496Z,12.70
2018-12-30T16:27:32.888Z,13.77
2018-12-30T16:30:01.671Z,18.40
2018-12-30T16:32:30.517Z,14.93
2018-12-30T16:34:58.706Z,17.83
2018-12-30T16:37:27.267Z,17.53
2018-12-30T16:39:55.382Z,15.17
2018-12-30T16:42:24.125Z,14.33
2018-12-30T16:44:53.265Z,14.57
2018-12-30T16:47:22.468Z,24.47
2018-12-30T16:49:51.333Z,13.13
2018-12-30T16:52:19.842Z,20.30
2018-12-30T16:54:48.825Z,15.63
2018-12-30T16:57:19.933Z,15.37
2018-12-30T16:59:48.461Z,17.60
2018-12-30T17:02:16.776Z,23.77
2018-12-30T17:04:44.902Z,24.57
2018-12-30T17:07:13.283Z,21.27
2018-12-30T17:09:42.051Z,19.90
2018-12-30T17:12:10.138Z,20.40
2018-12-30T17:14:39.244Z,21.53
2018-12-30T17:17:08.113Z,21.63
2018-12-30T17:19:36.270Z,24.03
2018-12-30T17:22:04.291Z,27.10
2018-12-30T17:24:33.573Z,26.13
2018-12-30T17:27:02.311Z,28.97
2018-12-30T17:29:30.944Z,26.37
2018-12-30T17:31:59.108Z,25.20
2018-12-30T17:34:27.660Z,21.50
2018-12-30T17:36:55.809Z,21.87
2018-12-30T17:39:24.211Z,29.13
2018-12-30T17:41:52.720Z,24.13
2018-12-30T17:44:21.465Z,32.47
2018-12-30T17:46:49.659Z,28.77
2018-12-30T17:49:19.403Z,25.87
2018-12-30T17:51:47.504Z,34.87
2018-12-30T17:54:16.035Z,27.97
2018-12-30T17:56:44.211Z,32.57
2018-12-30T17:59:13.204Z,28.57
2018-12-30T18:01:41.456Z,32.57
2018-12-30T18:04:10.279Z,35.43
2018-12-30T18:06:38.435Z,37.30
2018-12-30T18:09:09.768Z,33.03
2018-12-30T18:11:38.089Z,35.43
2018-12-30T18:14:06.272Z,39.93
2018-12-30T18:16:34.427Z,41.50
2018-12-30T18:19:03.110Z,41.10
2018-12-30T18:21:31.619Z,49.30
2018-12-30T18:24:00.040Z,44.03
2018-12-30T18:26:28.456Z,47.67
2018-12-30T18:28:57.358Z,52.57
2018-12-30T18:31:30.015Z,52.37
2018-12-30T18:34:01.208Z,62.77
2018-12-30T18:36:29.557Z,72.90
2018-12-30T18:38:58.450Z,68.87
2018-12-30T18:41:26.583Z,65.33
2018-12-30T18:43:54.889Z,78.20
2018-12-30T18:46:23.171Z,79.87
2018-12-30T18:48:51.914Z,85.10
2018-12-30T18:51:21.159Z,89.90
2018-12-30T18:53:49.320Z,95.20
2018-12-30T18:56:18.577Z,122.13
2018-12-30T18:58:47.340Z,116.63
2018-12-30T19:01:15.482Z,121.87
2018-12-30T19:03:44.973Z,129.47
2018-12-30T19:06:17.367Z,127.80
2018-12-30T19:08:46.531Z,146.37
2018-12-30T19:11:14.703Z,155.03
2018-12-30T19:13:48.634Z,126.40
2018-12-30T19:16:16.920Z,135.30
2018-12-30T19:18:44.932Z,138.43
2018-12-30T19:21:13.776Z,135.60
2018-12-30T19:23:42.976Z,130.77
2018-12-30T19:26:14.407Z,163.97
2018-12-30T19:28:42.264Z,169.50
2018-12-30T19:31:10.453Z,164.90
2018-12-30T19:33:39.257Z,149.30
2018-12-30T19:36:08.373Z,189.20
2018-12-30T19:38:36.622Z,165.57
2018-12-30T19:41:04.887Z,176.17
2018-12-30T19:43:33.168Z,159.90
2018-12-30T19:46:01.304Z,163.43
2018-12-30T19:48:30.895Z,156.33
2018-12-30T19:50:59.684Z,155.13
2018-12-30T19:53:29.462Z,149.17
2018-12-30T19:55:57.627Z,198.93
2018-12-30T19:58:25.939Z,177.73
2018-12-30T20:00:57.096Z,192.17
2018-12-30T20:03:25.298Z,163.50
2018-12-30T20:05:54.023Z,190.27
2018-12-30T20:08:22.334Z,190.37
2018-12-30T20:10:50.521Z,198.90
2018-12-30T20:13:18.746Z,174.00
2018-12-30T20:15:47.512Z,209.23
2018-12-30T20:18:15.844Z,246.97
2018-12-30T20:20:44.068Z,187.37
2018-12-30T20:23:13.438Z,198.93
2018-12-30T20:25:42.307Z,229.63
2018-12-30T20:28:12.709Z,213.17
2018-12-30T20:30:41.372Z,203.70
2018-12-30T20:33:10.474Z,226.37
2018-12-30T20:35:38.752Z,208.00
2018-12-30T20:38:08.437Z,226.77
2018-12-30T20:40:38.864Z,209.53
2018-12-30T20:43:08.218Z,224.33
2018-12-30T20:45:37.429Z,222.87
2018-12-30T20:48:05.556Z,224.37
2018-12-30T20:50:33.970Z,231.83
2018-12-30T20:53:02.778Z,294.17
2018-12-30T20:55:30.987Z,271.53
2018-12-30T20:58:02.846Z,256.43
2018-12-30T21:00:34.523Z,246.13
2018-12-30T21:03:09.412Z,275.07
2018-12-30T21:05:41.996Z,268.67
2018-12-30T21:08:14.522Z,270.57
2018-12-30T21:10:46.921Z,266.40
2018-12-30T21:13:18.915Z,291.00
2018-12-30T21:15:51.556Z,316.03
2018-12-30T21:18:24.011Z,329.97
2018-12-30T21:20:57.031Z,338.73
2018-12-30T21:23:29.421Z,366.77
2018-12-30T21:26:00.286Z,310.23
2018-12-30T21:29:07.053Z,355.17
2018-12-30T21:31:57.933Z,400.57
2018-12-30T21:34:54.977Z,368.23
2018-12-30T21:37:42.099Z,408.77
2018-12-30T21:40:32.522Z,405.30
2018-12-30T21:43:20.842Z,363.23
2018-12-30T21:46:08.232Z,377.30
2018-12-30T21:48:55.281Z,353.50
2018-12-30T21:51:47.621Z,380.57
2018-12-30T21:54:17.055Z,388.00
2018-12-30T21:56:54.570Z,369.30
2018-12-30T21:59:18.708Z,312.97
2018-12-30T22:01:51.121Z,314.90
2018-12-30T22:04:23.730Z,292.17
2018-12-30T22:06:53.470Z,294.63
2018-12-30T22:09:22.594Z,320.80
2018-12-30T22:11:51.915Z,295.30
2018-12-30T22:14:22.713Z,333.03
2018-12-30T22:16:54.942Z,359.60
2018-12-30T22:19:25.166Z,327.30
2018-12-30T22:21:56.598Z,339.70
2018-12-30T22:24:27.398Z,294.00
2018-12-30T22:26:56.821Z,374.10
2018-12-30T22:29:26.096Z,324.67
2018-12-30T22:31:56.736Z,339.37
2018-12-30T22:34:26.151Z,351.63
2018-12-30T22:36:58.449Z,302.80
2018-12-30T22:39:30.386Z,331.20
2018-12-30T22:42:02.279Z,312.97
2018-12-30T22:44:37.331Z,296.00
2018-12-30T22:47:08.646Z,299.30
2018-12-30T22:49:38.266Z,319.67
2018-12-30T22:52:09.756Z,319.00
2018-12-30T22:54:39.925Z,272.10
2018-12-30T22:57:12.616Z,259.70
2018-12-30T22:59:42.592Z,292.03
2018-12-30T23:02:27.306Z,279.47
2018-12-30T23:04:58.647Z,227.53
2018-12-30T23:07:28.089Z,239.90
2018-12-30T23:10:00.511Z,275.07
2018-12-30T23:12:36.936Z,283.20
2018-12-30T23:15:06.621Z,276.33
2018-12-30T23:17:39.404Z,277.53
2018-12-30T23:20:10.248Z,246.33
2018-12-30T23:22:42.204Z,216.40
2018-12-30T23:25:11.389Z,211.27
2018-12-30T23:27:41.345Z,246.17
2018-12-30T23:30:33.243Z,216.13
2018-12-30T23:33:05.112Z,229.57
2018-12-30T23:35:34.409Z,253.43
2018-12-30T23:38:07.906Z,202.40
2018-12-30T23:40:40.973Z,205.80
2018-12-30T23:43:12.583Z,225.50
2018-12-30T23:45:43.383Z,197.73
2018-12-30T23:48:12.793Z,175.43
2018-12-30T23:50:42.770Z,209.07
2018-12-30T23:53:11.948Z,218.17
2018-12-30T23:55:41.638Z,211.53
2018-12-30T23:58:11.009Z,219.97
